sensor_id;sensor_type;location;lat;lon;timestamp;pressure;altitude;pressure_sealevel;temperature;humidity
11124;BME280;5616;42.692;23.312;2023-04-21T00:00:54;94732.72;;;12.22;66.30
11124;BME280;5616;42.692;23.312;2023-04-21T00:03:21;94732.28;;;12.18;66.34
11124;BME280;5616;42.692;23.312;2023-04-21T00:05:49;94729.13;;;12.16;66.54
11124;BME280;5616;42.692;23.312;2023-04-21T00:08:16;94727.09;;;12.12;65.95
11124;BME280;5616;42.692;23.312;2023-04-21T00:10:44;94723.53;;;12.13;66.97
11124;BME280;5616;42.692;23.312;2023-04-21T00:13:11;94714.97;;;12.12;66.24
11124;BME280;5616;42.692;23.312;2023-04-21T00:15:40;94716.56;;;12.07;65.94
11124;BME280;5616;42.692;23.312;2023-04-21T00:18:07;94722.53;;;12.07;65.58
11124;BME280;5616;42.692;23.312;2023-04-21T00:20:35;94721.53;;;12.02;65.36
11124;BME280;5616;42.692;23.312;2023-04-21T00:23:03;94719.53;;;12.04;66.87
11124;BME280;5616;42.692;23.312;2023-04-21T00:25:30;94718.34;;;12.06;66.16
11124;BME280;5616;42.692;23.312;2023-04-21T00:27:57;94725.13;;;12.07;65.91
11124;BME280;5616;42.692;23.312;2023-04-21T00:30:24;94726.72;;;12.08;65.52
11124;BME280;5616;42.692;23.312;2023-04-21T00:32:52;94722.34;;;12.09;65.20
11124;BME280;5616;42.692;23.312;2023-04-21T00:35:21;94729.91;;;12.10;65.39
11124;BME280;5616;42.692;23.312;2023-04-21T00:37:47;94730.69;;;12.04;65.89
11124;BME280;5616;42.692;23.312;2023-04-21T00:40:15;94732.88;;;12.07;65.65
11124;BME280;5616;42.692;23.312;2023-04-21T00:42:42;94731.09;;;12.08;65.94
11124;BME280;5616;42.692;23.312;2023-04-21T00:45:09;94726.53;;;12.03;66.52
11124;BME280;5616;42.692;23.312;2023-04-21T00:47:36;94729.50;;;12.00;65.67
11124;BME280;5616;42.692;23.312;2023-04-21T00:50:05;94724.72;;;11.97;66.33
11124;BME280;5616;42.692;23.312;2023-04-21T00:52:33;94719.72;;;11.96;66.32
11124;BME280;5616;42.692;23.312;2023-04-21T00:55:01;94711.56;;;11.92;66.53
11124;BME280;5616;42.692;23.312;2023-04-21T00:57:28;94709.59;;;11.94;66.39
11124;BME280;5616;42.692;23.312;2023-04-21T00:59:57;94710.56;;;11.93;66.52
11124;BME280;5616;42.692;23.312;2023-04-21T01:02:24;94715.16;;;11.85;67.17
11124;BME280;5616;42.692;23.312;2023-04-21T01:04:50;94708.38;;;11.77;67.33
11124;BME280;5616;42.692;23.312;2023-04-21T01:07:19;94710.34;;;11.75;67.13
11124;BME280;5616;42.692;23.312;2023-04-21T01:09:46;94715.91;;;11.72;67.17
11124;BME280;5616;42.692;23.312;2023-04-21T01:12:12;94722.25;;;11.63;68.23
11124;BME280;5616;42.692;23.312;2023-04-21T01:14:40;94711.91;;;11.63;67.56
11124;BME280;5616;42.692;23.312;2023-04-21T01:17:07;94717.44;;;11.60;67.58
11124;BME280;5616;42.692;23.312;2023-04-21T01:19:36;94713.25;;;11.59;67.03
11124;BME280;5616;42.692;23.312;2023-04-21T01:22:07;94712.69;;;11.63;67.83
11124;BME280;5616;42.692;23.312;2023-04-21T01:24:37;94714.66;;;11.55;68.22
11124;BME280;5616;42.692;23.312;2023-04-21T01:27:08;94709.28;;;11.56;67.79
11124;BME280;5616;42.692;23.312;2023-04-21T01:29:36;94707.66;;;11.42;67.91
11124;BME280;5616;42.692;23.312;2023-04-21T01:32:05;94712.03;;;11.48;67.29
11124;BME280;5616;42.692;23.312;2023-04-21T01:34:32;94712.47;;;11.52;67.20
11124;BME280;5616;42.692;23.312;2023-04-21T01:36:59;94711.28;;;11.54;67.09
11124;BME280;5616;42.692;23.312;2023-04-21T01:39:27;94704.69;;;11.52;67.33
11124;BME280;5616;42.692;23.312;2023-04-21T01:41:55;94699.16;;;11.55;66.81
11124;BME280;5616;42.692;23.312;2023-04-21T01:44:24;94704.31;;;11.55;67.54
11124;BME280;5616;42.692;23.312;2023-04-21T01:46:51;94700.34;;;11.52;67.77
11124;BME280;5616;42.692;23.312;2023-04-21T01:49:18;94704.91;;;11.50;67.90
11124;BME280;5616;42.692;23.312;2023-04-21T01:51:44;94699.53;;;11.52;67.60
11124;BME280;5616;42.692;23.312;2023-04-21T01:54:11;94700.31;;;11.46;67.92
11124;BME280;5616;42.692;23.312;2023-04-21T01:56:40;94705.47;;;11.46;68.36
11124;BME280;5616;42.692;23.312;2023-04-21T01:59:06;94705.47;;;11.46;69.22
11124;BME280;5616;42.692;23.312;2023-04-21T02:01:33;94700.94;;;11.48;68.68
11124;BME280;5616;42.692;23.312;2023-04-21T02:04:03;94700.31;;;11.39;69.63
11124;BME280;5616;42.692;23.312;2023-04-21T02:06:30;94708.03;;;11.33;69.52
11124;BME280;5616;42.692;23.312;2023-04-21T02:08:57;94711.41;;;11.27;69.55
11124;BME280;5616;42.692;23.312;2023-04-21T02:11:26;94707.81;;;11.21;70.37
11124;BME280;5616;42.692;23.312;2023-04-21T02:13:55;94704.19;;;11.16;70.75
11124;BME280;5616;42.692;23.312;2023-04-21T02:16:22;94706.56;;;11.11;70.79
11124;BME280;5616;42.692;23.312;2023-04-21T02:18:50;94699.53;;;10.91;71.37
11124;BME280;5616;42.692;23.312;2023-04-21T02:21:18;94700.91;;;10.87;72.15
11124;BME280;5616;42.692;23.312;2023-04-21T02:23:48;94700.09;;;10.87;72.99
11124;BME280;5616;42.692;23.312;2023-04-21T02:26:15;94708.44;;;10.82;72.68
11124;BME280;5616;42.692;23.312;2023-04-21T02:28:42;94702.41;;;10.75;72.72
11124;BME280;5616;42.692;23.312;2023-04-21T02:31:10;94704.03;;;10.76;73.09
11124;BME280;5616;42.692;23.312;2023-04-21T02:33:37;94699.66;;;10.77;73.70
11124;BME280;5616;42.692;23.312;2023-04-21T02:36:05;94698.06;;;10.76;73.07
11124;BME280;5616;42.692;23.312;2023-04-21T02:38:32;94705.22;;;10.80;73.35
11124;BME280;5616;42.692;23.312;2023-04-21T02:40:59;94699.06;;;10.81;73.39
11124;BME280;5616;42.692;23.312;2023-04-21T02:43:25;94697.09;;;10.83;74.25
11124;BME280;5616;42.692;23.312;2023-04-21T02:45:54;94700.84;;;10.81;74.38
11124;BME280;5616;42.692;23.312;2023-04-21T02:48:22;94708.66;;;10.87;74.37
11124;BME280;5616;42.692;23.312;2023-04-21T02:50:50;94707.28;;;10.91;73.58
11124;BME280;5616;42.692;23.312;2023-04-21T02:53:18;94707.69;;;10.95;73.08
11124;BME280;5616;42.692;23.312;2023-04-21T02:55:45;94707.31;;;10.98;72.67
11124;BME280;5616;42.692;23.312;2023-04-21T02:58:11;94713.50;;;11.03;73.43
11124;BME280;5616;42.692;23.312;2023-04-21T03:00:40;94704.38;;;11.14;72.72
11124;BME280;5616;42.692;23.312;2023-04-21T03:03:07;94709.78;;;11.19;71.96
11124;BME280;5616;42.692;23.312;2023-04-21T03:05:35;94705.84;;;11.30;71.74
11124;BME280;5616;42.692;23.312;2023-04-21T03:08:02;94706.84;;;11.35;70.48
11124;BME280;5616;42.692;23.312;2023-04-21T03:10:29;94707.25;;;11.39;69.71
11124;BME280;5616;42.692;23.312;2023-04-21T03:12:56;94705.47;;;11.46;69.96
11124;BME280;5616;42.692;23.312;2023-04-21T03:15:22;94707.13;;;11.53;70.00
11124;BME280;5616;42.692;23.312;2023-04-21T03:17:49;94709.09;;;11.58;69.37
11124;BME280;5616;42.692;23.312;2023-04-21T03:20:16;94711.91;;;11.63;69.54
11124;BME280;5616;42.692;23.312;2023-04-21T03:22:44;94701.75;;;11.68;69.37
11124;BME280;5616;42.692;23.312;2023-04-21T03:25:11;94713.53;;;11.71;68.73
11124;BME280;5616;42.692;23.312;2023-04-21T03:27:38;94711.91;;;11.70;68.88
11124;BME280;5616;42.692;23.312;2023-04-21T03:30:06;94714.50;;;11.70;68.89
11124;BME280;5616;42.692;23.312;2023-04-21T03:32:33;94707.97;;;11.74;68.01
11124;BME280;5616;42.692;23.312;2023-04-21T03:34:59;94708.38;;;11.77;68.97
11124;BME280;5616;42.692;23.312;2023-04-21T03:37:26;94719.28;;;11.73;69.32
11124;BME280;5616;42.692;23.312;2023-04-21T03:39:54;94710.53;;;11.80;68.38
11124;BME280;5616;42.692;23.312;2023-04-21T03:42:22;94718.94;;;11.82;68.56
11124;BME280;5616;42.692;23.312;2023-04-21T03:44:50;94709.59;;;11.88;68.26
11124;BME280;5616;42.692;23.312;2023-04-21T03:47:17;94714.34;;;11.91;67.80
11124;BME280;5616;42.692;23.312;2023-04-21T03:49:44;94716.34;;;11.95;67.87
11124;BME280;5616;42.692;23.312;2023-04-21T03:52:11;94720.31;;;11.91;68.17
11124;BME280;5616;42.692;23.312;2023-04-21T03:54:37;94723.31;;;11.95;66.93
11124;BME280;5616;42.692;23.312;2023-04-21T03:57:06;94722.31;;;11.96;67.29
11124;BME280;5616;42.692;23.312;2023-04-21T03:59:32;94726.50;;;11.97;66.40
11124;BME280;5616;42.692;23.312;2023-04-21T04:01:59;94727.13;;;12.05;66.50
11124;BME280;5616;42.692;23.312;2023-04-21T04:04:26;94736.06;;;12.09;66.02
11124;BME280;5616;42.692;23.312;2023-04-21T04:06:53;94730.69;;;12.11;65.62
11124;BME280;5616;42.692;23.312;2023-04-21T04:09:19;94731.88;;;12.15;66.04
11124;BME280;5616;42.692;23.312;2023-04-21T04:11:46;94739.66;;;12.15;65.94
11124;BME280;5616;42.692;23.312;2023-04-21T04:14:15;94738.28;;;12.19;65.42
11124;BME280;5616;42.692;23.312;2023-04-21T04:16:41;94743.66;;;12.24;66.02
11124;BME280;5616;42.692;23.312;2023-04-21T04:19:08;94742.06;;;12.30;66.02
11124;BME280;5616;42.692;23.312;2023-04-21T04:21:35;94744.25;;;12.33;65.61
11124;BME280;5616;42.692;23.312;2023-04-21T04:24:03;94746.81;;;12.39;65.46
11124;BME280;5616;42.692;23.312;2023-04-21T04:26:30;94753.78;;;12.39;65.95
11124;BME280;5616;42.692;23.312;2023-04-21T04:28:59;94752.19;;;12.77;71.51
11124;BME280;5616;42.692;23.312;2023-04-21T04:31:28;94756.56;;;12.76;64.45
11124;BME280;5616;42.692;23.312;2023-04-21T04:33:55;94756.34;;;12.78;64.11
11124;BME280;5616;42.692;23.312;2023-04-21T04:36:21;94763.94;;;12.79;64.07
11124;BME280;5616;42.692;23.312;2023-04-21T04:38:48;94763.31;;;12.84;64.25
11124;BME280;5616;42.692;23.312;2023-04-21T04:41:15;94765.31;;;12.88;63.09
11124;BME280;5616;42.692;23.312;2023-04-21T04:43:42;94765.69;;;12.85;63.32
11124;BME280;5616;42.692;23.312;2023-04-21T04:46:09;94764.94;;;12.85;63.79
11124;BME280;5616;42.692;23.312;2023-04-21T04:48:38;94765.91;;;12.91;63.94
11124;BME280;5616;42.692;23.312;2023-04-21T04:51:05;94767.91;;;12.95;63.70
11124;BME280;5616;42.692;23.312;2023-04-21T04:53:32;94770.66;;;13.00;63.22
11124;BME280;5616;42.692;23.312;2023-04-21T04:55:59;94761.28;;;13.06;63.62
11124;BME280;5616;42.692;23.312;2023-04-21T04:58:25;94769.47;;;13.16;63.32
11124;BME280;5616;42.692;23.312;2023-04-21T05:00:52;94774.22;;;13.25;62.65
11124;BME280;5616;42.692;23.312;2023-04-21T05:03:19;94772.63;;;13.24;62.99
11124;BME280;5616;42.692;23.312;2023-04-21T05:05:47;94779.41;;;13.25;63.47
11124;BME280;5616;42.692;23.312;2023-04-21T05:08:14;94772.63;;;13.24;63.69
11124;BME280;5616;42.692;23.312;2023-04-21T05:10:41;94771.97;;;13.35;63.26
11124;BME280;5616;42.692;23.312;2023-04-21T05:13:07;94773.94;;;13.46;62.81
11124;BME280;5616;42.692;23.312;2023-04-21T05:15:34;94774.50;;;13.55;62.69
11124;BME280;5616;42.692;23.312;2023-04-21T05:18:01;94776.53;;;13.53;62.59
11124;BME280;5616;42.692;23.312;2023-04-21T05:20:28;94780.28;;;13.64;62.12
11124;BME280;5616;42.692;23.312;2023-04-21T05:22:56;94776.72;;;13.52;62.22
11124;BME280;5616;42.692;23.312;2023-04-21T05:25:22;94772.94;;;13.47;62.76
11124;BME280;5616;42.692;23.312;2023-04-21T05:27:49;94776.31;;;13.55;61.94
11124;BME280;5616;42.692;23.312;2023-04-21T05:30:16;94776.34;;;13.48;63.20
11124;BME280;5616;42.692;23.312;2023-04-21T05:32:43;94772.31;;;13.59;62.97
11124;BME280;5616;42.692;23.312;2023-04-21T05:35:10;94777.19;;;13.80;61.88
11124;BME280;5616;42.692;23.312;2023-04-21T05:37:36;94775.13;;;13.95;62.30
11124;BME280;5616;42.692;23.312;2023-04-21T05:40:05;94782.00;;;14.14;61.87
11124;BME280;5616;42.692;23.312;2023-04-21T05:42:32;94781.69;;;14.35;60.46
11124;BME280;5616;42.692;23.312;2023-04-21T05:44:59;94782.16;;;14.50;59.08
11124;BME280;5616;42.692;23.312;2023-04-21T05:47:26;94783.16;;;14.74;58.37
11124;BME280;5616;42.692;23.312;2023-04-21T05:49:53;94779.91;;;15.03;57.32
11124;BME280;5616;42.692;23.312;2023-04-21T05:52:20;94775.03;;;14.89;58.47
11124;BME280;5616;42.692;23.312;2023-04-21T05:54:47;94781.25;;;14.63;57.85
11124;BME280;5616;42.692;23.312;2023-04-21T05:57:15;94777.06;;;14.62;58.99
11124;BME280;5616;42.692;23.312;2023-04-21T05:59:42;94772.13;;;14.79;58.71
11124;BME280;5616;42.692;23.312;2023-04-21T06:02:09;94777.78;;;14.94;58.25
11124;BME280;5616;42.692;23.312;2023-04-21T06:04:36;94780.31;;;15.00;57.02
11124;BME280;5616;42.692;23.312;2023-04-21T06:07:04;94766.09;;;15.03;57.17
11124;BME280;5616;42.692;23.312;2023-04-21T06:09:31;94772.22;;;14.41;59.13
11124;BME280;5616;42.692;23.312;2023-04-21T06:11:58;94760.69;;;14.61;59.76
11124;BME280;5616;42.692;23.312;2023-04-21T06:14:27;94764.75;;;14.76;58.72
11124;BME280;5616;42.692;23.312;2023-04-21T06:16:54;94763.47;;;14.85;58.46
11124;BME280;5616;42.692;23.312;2023-04-21T06:19:21;94765.97;;;14.98;58.72
11124;BME280;5616;42.692;23.312;2023-04-21T06:21:47;94771.81;;;15.11;57.87
11124;BME280;5616;42.692;23.312;2023-04-21T06:24:14;94768.34;;;15.36;57.61
11124;BME280;5616;42.692;23.312;2023-04-21T06:26:41;94770.31;;;15.58;56.81
11124;BME280;5616;42.692;23.312;2023-04-21T06:29:08;94772.09;;;15.76;55.88
11124;BME280;5616;42.692;23.312;2023-04-21T06:31:36;94772.06;;;15.94;55.49
11124;BME280;5616;42.692;23.312;2023-04-21T06:34:03;94769.00;;;15.67;57.08
11124;BME280;5616;42.692;23.312;2023-04-21T06:36:29;94769.66;;;15.45;57.96
11124;BME280;5616;42.692;23.312;2023-04-21T06:38:57;94771.03;;;15.65;57.01
11124;BME280;5616;42.692;23.312;2023-04-21T06:41:24;94762.50;;;15.58;57.67
11124;BME280;5616;42.692;23.312;2023-04-21T06:43:51;94764.97;;;15.83;56.95
11124;BME280;5616;42.692;23.312;2023-04-21T06:46:18;94752.13;;;16.29;55.98
11124;BME280;5616;42.692;23.312;2023-04-21T06:48:46;94760.81;;;16.53;54.74
11124;BME280;5616;42.692;23.312;2023-04-21T06:51:12;94756.19;;;17.01;53.51
11124;BME280;5616;42.692;23.312;2023-04-21T06:53:39;94747.66;;;16.94;53.87
11124;BME280;5616;42.692;23.312;2023-04-21T06:56:06;94743.47;;;17.17;52.81
11124;BME280;5616;42.692;23.312;2023-04-21T06:58:33;94735.59;;;17.40;59.42
11124;BME280;5616;42.692;23.312;2023-04-21T07:01:00;94749.66;;;17.62;52.65
11124;BME280;5616;42.692;23.312;2023-04-21T07:03:27;94747.97;;;17.84;50.49
11124;BME280;5616;42.692;23.312;2023-04-21T07:05:55;94741.75;;;18.02;51.34
11124;BME280;5616;42.692;23.312;2023-04-21T07:08:22;94743.03;;;18.16;50.62
11124;BME280;5616;42.692;23.312;2023-04-21T07:10:50;94742.88;;;18.06;51.02
11124;BME280;5616;42.692;23.312;2023-04-21T07:13:17;94739.06;;;17.57;52.26
11124;BME280;5616;42.692;23.312;2023-04-21T07:15:44;94745.53;;;17.66;52.28
11124;BME280;5616;42.692;23.312;2023-04-21T07:18:10;94744.50;;;17.67;52.46
11124;BME280;5616;42.692;23.312;2023-04-21T07:20:37;94740.38;;;17.99;50.96
11124;BME280;5616;42.692;23.312;2023-04-21T07:23:06;94741.16;;;18.28;50.88
11124;BME280;5616;42.692;23.312;2023-04-21T07:25:32;94741.34;;;18.88;48.32
11124;BME280;5616;42.692;23.312;2023-04-21T07:27:59;94740.94;;;18.96;48.53
11124;BME280;5616;42.692;23.312;2023-04-21T07:30:27;94745.56;;;18.56;48.79
11124;BME280;5616;42.692;23.312;2023-04-21T07:32:54;94742.09;;;18.39;49.63
11124;BME280;5616;42.692;23.312;2023-04-21T07:35:21;94741.88;;;18.40;49.28
11124;BME280;5616;42.692;23.312;2023-04-21T07:37:48;94740.75;;;18.64;48.60
11124;BME280;5616;42.692;23.312;2023-04-21T07:40:16;94745.91;;;19.14;47.92
11124;BME280;5616;42.692;23.312;2023-04-21T07:42:42;94743.31;;;19.79;46.24
11124;BME280;5616;42.692;23.312;2023-04-21T07:45:10;94735.56;;;20.16;44.61
11124;BME280;5616;42.692;23.312;2023-04-21T07:47:37;94739.34;;;20.89;43.90
11124;BME280;5616;42.692;23.312;2023-04-21T07:50:05;94740.25;;;21.51;41.30
11124;BME280;5616;42.692;23.312;2023-04-21T07:52:31;94745.41;;;21.88;40.11
11124;BME280;5616;42.692;23.312;2023-04-21T07:54:58;94731.00;;;22.26;39.98
11124;BME280;5616;42.692;23.312;2023-04-21T07:57:26;94737.34;;;22.25;40.30
11124;BME280;5616;42.692;23.312;2023-04-21T07:59:53;94738.97;;;22.66;40.41
11124;BME280;5616;42.692;23.312;2023-04-21T08:02:20;94739.44;;;23.19;39.34
11124;BME280;5616;42.692;23.312;2023-04-21T08:04:48;94731.28;;;23.15;37.63
11124;BME280;5616;42.692;23.312;2023-04-21T08:07:15;94739.22;;;22.85;39.29
11124;BME280;5616;42.692;23.312;2023-04-21T08:09:41;94741.84;;;22.54;38.84
11124;BME280;5616;42.692;23.312;2023-04-21T08:12:08;94747.50;;;21.86;40.03
11124;BME280;5616;42.692;23.312;2023-04-21T08:14:36;94734.19;;;21.04;42.29
11124;BME280;5616;42.692;23.312;2023-04-21T08:17:03;94744.38;;;20.05;44.59
11124;BME280;5616;42.692;23.312;2023-04-21T08:19:30;94733.28;;;19.49;44.55
11124;BME280;5616;42.692;23.312;2023-04-21T08:21:57;94735.81;;;20.41;42.76
11124;BME280;5616;42.692;23.312;2023-04-21T08:24:24;94730.34;;;21.11;41.88
11124;BME280;5616;42.692;23.312;2023-04-21T08:26:50;94735.50;;;21.48;41.31
11124;BME280;5616;42.692;23.312;2023-04-21T08:29:17;94730.56;;;21.10;40.94
11124;BME280;5616;42.692;23.312;2023-04-21T08:31:45;94735.81;;;20.41;41.90
11124;BME280;5616;42.692;23.312;2023-04-21T08:34:12;94732.50;;;19.49;44.71
11124;BME280;5616;42.692;23.312;2023-04-21T08:36:39;94735.72;;;19.78;44.14
11124;BME280;5616;42.692;23.312;2023-04-21T08:39:07;94730.78;;;20.08;43.99
11124;BME280;5616;42.692;23.312;2023-04-21T08:41:34;94735.06;;;20.78;42.84
11124;BME280;5616;42.692;23.312;2023-04-21T08:44:01;94723.78;;;21.14;40.61
11124;BME280;5616;42.692;23.312;2023-04-21T08:46:28;94718.34;;;20.52;41.43
11124;BME280;5616;42.692;23.312;2023-04-21T08:48:57;94724.84;;;21.18;40.80
11124;BME280;5616;42.692;23.312;2023-04-21T08:51:26;94722.88;;;22.22;39.38
11124;BME280;5616;42.692;23.312;2023-04-21T08:53:54;94719.94;;;23.20;37.27
11124;BME280;5616;42.692;23.312;2023-04-21T08:56:23;94721.63;;;24.62;35.08
11124;BME280;5616;42.692;23.312;2023-04-21T08:58:50;94718.06;;;25.58;32.90
11124;BME280;5616;42.692;23.312;2023-04-21T09:01:16;94712.47;;;27.77;31.07
11124;BME280;5616;42.692;23.312;2023-04-21T09:03:43;94701.16;;;29.71;27.60
11124;BME280;5616;42.692;23.312;2023-04-21T09:06:11;94703.94;;;30.91;25.76
11124;BME280;5616;42.692;23.312;2023-04-21T09:08:41;94705.09;;;31.28;23.60
11124;BME280;5616;42.692;23.312;2023-04-21T09:11:12;94705.09;;;31.28;23.46
11124;BME280;5616;42.692;23.312;2023-04-21T09:13:41;94697.34;;;30.80;25.18
11124;BME280;5616;42.692;23.312;2023-04-21T09:16:15;94694.97;;;29.84;25.37
11124;BME280;5616;42.692;23.312;2023-04-21T09:18:43;94689.38;;;28.63;27.27
11124;BME280;5616;42.692;23.312;2023-04-21T09:21:13;94677.13;;;28.17;27.27
11124;BME280;5616;42.692;23.312;2023-04-21T09:23:45;94683.56;;;27.34;28.56
11124;BME280;5616;42.692;23.312;2023-04-21T09:26:12;94679.16;;;26.70;28.79
11124;BME280;5616;42.692;23.312;2023-04-21T09:28:41;94683.88;;;26.04;30.70
11124;BME280;5616;42.692;23.312;2023-04-21T09:31:15;94675.41;;;24.93;31.34
11124;BME280;5616;42.692;23.312;2023-04-21T09:33:45;94679.22;;;22.72;35.50
11124;BME280;5616;42.692;23.312;2023-04-21T09:36:18;94675.75;;;22.01;36.26
11124;BME280;5616;42.692;23.312;2023-04-21T09:38:55;94668.69;;;22.67;35.52
11124;BME280;5616;42.692;23.312;2023-04-21T09:41:23;94673.06;;;23.17;35.03
11124;BME280;5616;42.692;23.312;2023-04-21T09:43:50;94672.75;;;23.33;34.64
11124;BME280;5616;42.692;23.312;2023-04-21T09:46:18;94668.94;;;22.80;34.57
11124;BME280;5616;42.692;23.312;2023-04-21T09:48:46;94665.81;;;22.18;35.54
11124;BME280;5616;42.692;23.312;2023-04-21T09:51:15;94669.72;;;21.23;38.24
11124;BME280;5616;42.692;23.312;2023-04-21T09:53:44;94668.97;;;21.27;37.49
11124;BME280;5616;42.692;23.312;2023-04-21T09:56:13;94666.66;;;21.36;37.14
11124;BME280;5616;42.692;23.312;2023-04-21T09:58:45;94664.66;;;21.06;37.70
11124;BME280;5616;42.692;23.312;2023-04-21T10:01:13;94666.72;;;20.62;39.77
11124;BME280;5616;42.692;23.312;2023-04-21T10:03:42;94669.66;;;20.29;39.20
11124;BME280;5616;42.692;23.312;2023-04-21T10:06:11;94667.66;;;19.83;41.48
11124;BME280;5616;42.692;23.312;2023-04-21T10:08:38;94671.66;;;19.42;42.44
11124;BME280;5616;42.692;23.312;2023-04-21T10:11:06;94671.06;;;19.57;41.90
11124;BME280;5616;42.692;23.312;2023-04-21T10:13:34;94662.81;;;19.70;41.69
11124;BME280;5616;42.692;23.312;2023-04-21T10:16:03;94662.81;;;19.70;43.19
11124;BME280;5616;42.692;23.312;2023-04-21T10:18:35;94657.66;;;19.53;44.17
11124;BME280;5616;42.692;23.312;2023-04-21T10:21:05;94658.41;;;19.75;42.97
11124;BME280;5616;42.692;23.312;2023-04-21T10:23:36;94667.63;;;19.56;44.64
11124;BME280;5616;42.692;23.312;2023-04-21T10:26:07;94663.91;;;19.52;44.20
11124;BME280;5616;42.692;23.312;2023-04-21T10:28:51;94660.78;;;19.33;44.05
11124;BME280;5616;42.692;23.312;2023-04-21T10:31:30;94661.78;;;19.27;44.08
11124;BME280;5616;42.692;23.312;2023-04-21T10:34:17;94657.88;;;19.30;44.66
11124;BME280;5616;42.692;23.312;2023-04-21T10:36:50;94657.22;;;19.39;44.86
11124;BME280;5616;42.692;23.312;2023-04-21T10:39:33;94652.16;;;19.81;44.62
11124;BME280;5616;42.692;23.312;2023-04-21T10:42:20;94651.19;;;20.19;42.35
11124;BME280;5616;42.692;23.312;2023-04-21T10:45:09;94641.31;;;20.26;43.47
11124;BME280;5616;42.692;23.312;2023-04-21T10:47:38;94640.50;;;20.26;42.75
11124;BME280;5616;42.692;23.312;2023-04-21T10:50:12;94654.25;;;20.38;41.36
11124;BME280;5616;42.692;23.312;2023-04-21T10:52:43;94653.63;;;20.62;40.56
11124;BME280;5616;42.692;23.312;2023-04-21T10:55:10;94650.34;;;20.40;38.56
11124;BME280;5616;42.692;23.312;2023-04-21T10:57:43;94650.34;;;19.82;40.25
11124;BME280;5616;42.692;23.312;2023-04-21T11:00:14;94649.59;;;19.86;40.32
11124;BME280;5616;42.692;23.312;2023-04-21T11:02:42;94649.28;;;20.09;39.60
11124;BME280;5616;42.692;23.312;2023-04-21T11:05:10;94634.03;;;20.33;39.36
11124;BME280;5616;42.692;23.312;2023-04-21T11:07:37;94639.34;;;20.43;41.39
11124;BME280;5616;42.692;23.312;2023-04-21T11:10:05;94626.19;;;20.38;42.20
11124;BME280;5616;42.692;23.312;2023-04-21T11:12:34;94637.72;;;20.37;42.85
11124;BME280;5616;42.692;23.312;2023-04-21T11:15:06;94643.13;;;20.26;42.10
11124;BME280;5616;42.692;23.312;2023-04-21T11:17:33;94642.13;;;19.73;43.16
11124;BME280;5616;42.692;23.312;2023-04-21T11:20:01;94631.69;;;20.10;42.73
11124;BME280;5616;42.692;23.312;2023-04-21T11:22:31;94631.28;;;20.55;40.41
11124;BME280;5616;42.692;23.312;2023-04-21T11:24:58;94623.06;;;20.88;38.81
11124;BME280;5616;42.692;23.312;2023-04-21T11:27:26;94620.59;;;21.18;39.22
11124;BME280;5616;42.692;23.312;2023-04-21T11:29:53;94627.78;;;21.38;38.42
11124;BME280;5616;42.692;23.312;2023-04-21T11:32:21;94630.44;;;21.63;37.25
11124;BME280;5616;42.692;23.312;2023-04-21T11:34:49;94637.81;;;21.66;37.89
11124;BME280;5616;42.692;23.312;2023-04-21T11:37:23;94631.13;;;21.23;40.59
11124;BME280;5616;42.692;23.312;2023-04-21T11:39:56;94632.59;;;21.04;42.49
11124;BME280;5616;42.692;23.312;2023-04-21T11:42:23;94625.81;;;21.08;40.99
11124;BME280;5616;42.692;23.312;2023-04-21T11:44:53;94633.63;;;20.98;40.86
11124;BME280;5616;42.692;23.312;2023-04-21T11:47:22;94634.78;;;20.70;41.73
11124;BME280;5616;42.692;23.312;2023-04-21T11:49:51;94630.06;;;20.67;41.36
11124;BME280;5616;42.692;23.312;2023-04-21T11:52:24;94634.22;;;20.63;40.27
11124;BME280;5616;42.692;23.312;2023-04-21T11:54:54;94629.34;;;20.40;39.37
11124;BME280;5616;42.692;23.312;2023-04-21T11:57:22;94624.66;;;20.47;37.96
11124;BME280;5616;42.692;23.312;2023-04-21T11:59:50;94630.78;;;20.63;37.24
11124;BME280;5616;42.692;23.312;2023-04-21T12:02:22;94635.81;;;20.64;36.76
11124;BME280;5616;42.692;23.312;2023-04-21T12:05:00;94627.53;;;20.88;36.05
11124;BME280;5616;42.692;23.312;2023-04-21T12:07:30;94636.63;;;21.17;35.56
11124;BME280;5616;42.692;23.312;2023-04-21T12:09:57;94638.59;;;21.00;37.92
11124;BME280;5616;42.692;23.312;2023-04-21T12:12:25;94650.38;;;20.92;38.36
11124;BME280;5616;42.692;23.312;2023-04-21T12:14:52;94641.88;;;21.17;38.33
11124;BME280;5616;42.692;23.312;2023-04-21T12:17:19;94633.81;;;21.39;39.02
11124;BME280;5616;42.692;23.312;2023-04-21T12:19:47;94632.91;;;21.08;37.88
11124;BME280;5616;42.692;23.312;2023-04-21T12:22:16;94639.75;;;21.14;37.82
11124;BME280;5616;42.692;23.312;2023-04-21T12:24:44;94642.44;;;20.77;38.22
11124;BME280;5616;42.692;23.312;2023-04-21T12:27:11;94646.00;;;20.61;39.57
11124;BME280;5616;42.692;23.312;2023-04-21T12:29:39;94633.69;;;20.25;41.12
11124;BME280;5616;42.692;23.312;2023-04-21T12:32:06;94631.75;;;20.15;40.36
11124;BME280;5616;42.692;23.312;2023-04-21T12:34:33;94641.19;;;19.58;42.74
11124;BME280;5616;42.692;23.312;2023-04-21T12:37:02;94636.59;;;19.96;39.96
11124;BME280;5616;42.692;23.312;2023-04-21T12:39:29;94639.91;;;20.19;40.58
11124;BME280;5616;42.692;23.312;2023-04-21T12:41:56;94640.41;;;20.15;40.59
11124;BME280;5616;42.692;23.312;2023-04-21T12:44:23;94639.06;;;20.13;39.46
11124;BME280;5616;42.692;23.312;2023-04-21T12:46:50;94642.16;;;20.05;40.98
11124;BME280;5616;42.692;23.312;2023-04-21T12:49:17;94644.38;;;19.91;42.37
11124;BME280;5616;42.692;23.312;2023-04-21T12:51:44;94633.44;;;19.99;40.35
11124;BME280;5616;42.692;23.312;2023-04-21T12:54:13;94641.44;;;19.83;42.56
11124;BME280;5616;42.692;23.312;2023-04-21T12:56:40;94632.00;;;19.82;46.40
11124;BME280;5616;42.692;23.312;2023-04-21T12:59:08;94640.53;;;19.45;48.60
11124;BME280;5616;42.692;23.312;2023-04-21T13:01:35;94636.50;;;19.60;44.11
11124;BME280;5616;42.692;23.312;2023-04-21T13:04:03;94639.31;;;19.80;41.10